Time;durP1;ratioP1;P1;durP2;ratioP2;P2;SDS_P1;SDS_P2;PMS_P1;PMS_P2;Temp;Humidity;BMP_temperature;BMP_pressure;BME280_temperature;BME280_humidity;BME280_pressure;Samples;Min_cycle;Max_cycle;Signal;HPM_P1;HPM_P2
2021/06/03 00:00:16;;;;;;;6.13;3.75;;;17.40;99.90;;;;;;3524803;40;20087;-83
2021/06/03 00:02:45;;;;;;;6.55;4.30;;;17.40;99.90;;;;;;3533414;40;20070;-82
2021/06/03 00:05:12;;;;;;;5.70;3.70;;;17.40;99.90;;;;;;3542417;40;20090;-82
2021/06/03 00:07:40;;;;;;;9.07;3.75;;;17.30;99.90;;;;;;3533959;40;20062;-82
2021/06/03 00:10:09;;;;;;;6.85;4.05;;;17.30;99.90;;;;;;3533569;40;20090;-83
2021/06/03 00:12:40;;;;;;;8.73;3.72;;;17.30;99.90;;;;;;3533880;40;20090;-86
2021/06/03 00:15:11;;;;;;;6.60;4.22;;;17.30;99.90;;;;;;3525196;40;20070;-83
2021/06/03 00:17:40;;;;;;;8.13;3.70;;;17.30;99.90;;;;;;3534864;40;20090;-83
2021/06/03 00:20:15;;;;;;;15.45;4.05;;;17.20;99.90;;;;;;3533703;40;20066;-83
2021/06/03 00:22:43;;;;;;;8.63;3.83;;;17.10;99.90;;;;;;3549430;40;20086;-84
2021/06/03 00:25:11;;;;;;;8.10;4.13;;;17.00;99.90;;;;;;3541445;40;20410;-84
2021/06/03 00:27:38;;;;;;;5.87;3.50;;;17.00;99.90;;;;;;3541593;40;20054;-84
2021/06/03 00:30:08;;;;;;;5.90;3.72;;;16.90;99.90;;;;;;3541738;40;20097;-83
2021/06/03 00:32:36;;;;;;;9.05;4.30;;;16.80;99.90;;;;;;3539641;40;20078;-83
2021/06/03 00:35:07;;;;;;;7.47;3.72;;;16.80;99.90;;;;;;3532045;40;20078;-84
2021/06/03 00:37:36;;;;;;;6.53;4.15;;;16.80;99.90;;;;;;3541596;40;20093;-83
2021/06/03 00:40:05;;;;;;;7.80;4.38;;;16.80;99.90;;;;;;3526442;40;20378;-82
2021/06/03 00:42:32;;;;;;;6.47;3.83;;;16.70;99.90;;;;;;3541378;40;20085;-82
2021/06/03 00:45:01;;;;;;;9.15;4.45;;;16.70;99.90;;;;;;3524805;40;20039;-83
2021/06/03 00:47:29;;;;;;;9.60;4.03;;;16.70;99.90;;;;;;3533475;40;20313;-83
2021/06/03 00:49:56;;;;;;;6.82;4.15;;;16.70;99.90;;;;;;3535700;40;20305;-82
2021/06/03 00:52:26;;;;;;;7.65;4.03;;;16.60;99.90;;;;;;3525056;40;20070;-82
2021/06/03 00:54:55;;;;;;;7.50;3.63;;;16.60;99.90;;;;;;3550767;40;20094;-83
2021/06/03 00:57:25;;;;;;;8.45;4.18;;;16.70;99.90;;;;;;3541422;40;20070;-83
2021/06/03 00:59:52;;;;;;;5.38;3.85;;;16.60;99.90;;;;;;3542214;40;20417;-83
2021/06/03 01:02:22;;;;;;;6.25;4.35;;;16.50;99.90;;;;;;3542222;40;20068;-81
2021/06/03 01:04:49;;;;;;;9.18;4.25;;;16.50;99.90;;;;;;3525938;40;20078;-82
2021/06/03 01:07:20;;;;;;;6.63;4.30;;;16.50;99.90;;;;;;3541532;40;20090;-82
2021/06/03 01:09:56;;;;;;;7.45;4.20;;;16.50;99.90;;;;;;3542367;40;20070;-83
2021/06/03 01:12:29;;;;;;;9.02;4.07;;;16.50;99.90;;;;;;3541508;40;20086;-82
2021/06/03 01:15:04;;;;;;;6.20;4.30;;;16.50;99.90;;;;;;3533573;40;20124;-83
2021/06/03 01:17:32;;;;;;;7.78;4.18;;;16.50;99.90;;;;;;3538738;40;20051;-83
2021/06/03 01:20:01;;;;;;;9.85;5.57;;;16.50;99.90;;;;;;3523831;40;20094;-84
2021/06/03 01:22:37;;;;;;;;;;;16.50;99.90;;;;;;3549326;40;20074;-83
2021/06/03 01:25:09;;;;;;;6.80;4.20;;;16.50;99.90;;;;;;3546686;40;19965;-82
2021/06/03 01:27:37;;;;;;;6.55;4.03;;;16.50;99.90;;;;;;3544916;40;20090;-84
2021/06/03 01:30:12;;;;;;;6.18;4.25;;;16.40;99.90;;;;;;3543673;40;20450;-85
2021/06/03 01:32:43;;;;;;;8.38;4.32;;;16.40;99.90;;;;;;3534772;40;20094;-83
2021/06/03 01:35:16;;;;;;;5.93;3.95;;;16.40;99.90;;;;;;3539227;40;20067;-85
2021/06/03 01:37:47;;;;;;;7.25;4.15;;;16.40;99.90;;;;;;3535387;40;20320;-84
2021/06/03 01:40:17;;;;;;;7.20;4.20;;;16.40;99.90;;;;;;3528755;40;20082;-85
2021/06/03 01:42:46;;;;;;;9.38;4.55;;;16.30;99.90;;;;;;3537529;40;20062;-84
2021/06/03 01:45:15;;;;;;;8.13;4.35;;;16.40;99.90;;;;;;3537165;40;20093;-84
2021/06/03 01:47:44;;;;;;;6.65;4.15;;;16.30;99.90;;;;;;3543178;40;20070;-82
2021/06/03 01:50:14;;;;;;;6.35;4.32;;;16.30;99.90;;;;;;3544594;40;20086;-84
2021/06/03 01:52:44;;;;;;;11.15;4.70;;;16.30;99.90;;;;;;3533878;40;20082;-82
2021/06/03 01:55:14;;;;;;;7.30;4.80;;;16.30;99.90;;;;;;3533361;40;20093;-84
2021/06/03 01:57:44;;;;;;;7.57;4.93;;;16.30;99.90;;;;;;3531878;40;20090;-83
2021/06/03 02:00:22;;;;;;;9.40;4.53;;;16.20;99.90;;;;;;3533241;40;20078;-82
2021/06/03 02:02:53;;;;;;;10.13;4.22;;;16.20;99.90;;;;;;3532188;40;20109;-84
2021/06/03 02:05:25;;;;;;;7.60;4.55;;;16.20;99.90;;;;;;3537332;40;20102;-84
2021/06/03 02:07:55;;;;;;;6.75;4.55;;;16.20;99.90;;;;;;3539976;40;20126;-82
2021/06/03 02:10:23;;;;;;;;;;;16.20;99.90;;;;;;3532559;40;20413;-87
2021/06/03 02:12:56;;;;;;;6.63;4.40;;;16.10;99.90;;;;;;3537846;40;19989;-85
2021/06/03 02:15:26;;;;;;;7.90;4.47;;;16.10;99.90;;;;;;3533152;40;20078;-83
2021/06/03 02:17:59;;;;;;;7.55;4.65;;;16.10;99.90;;;;;;3534378;40;20078;-83
2021/06/03 02:20:30;;;;;;;10.48;5.28;;;16.00;99.90;;;;;;3530962;40;20311;-83
2021/06/03 02:22:58;;;;;;;9.80;4.68;;;16.00;99.90;;;;;;3532764;40;20090;-84
2021/06/03 02:25:28;;;;;;;8.07;4.57;;;16.00;99.90;;;;;;3526052;40;20533;-84
2021/06/03 02:28:00;;;;;;;7.70;4.97;;;15.90;99.90;;;;;;3533746;40;20074;-83
2021/06/03 02:30:29;;;;;;;7.90;4.60;;;15.90;99.90;;;;;;3533855;40;20089;-84
2021/06/03 02:32:59;;;;;;;6.85;4.65;;;15.90;99.90;;;;;;3540393;40;20066;-83
2021/06/03 02:35:31;;;;;;;6.35;4.38;;;15.90;99.90;;;;;;3525460;40;20306;-84
2021/06/03 02:37:59;;;;;;;8.05;5.93;;;15.90;99.90;;;;;;3532939;40;20070;-85
2021/06/03 02:40:28;;;;;;;7.60;4.75;;;15.80;99.90;;;;;;3527857;40;20365;-84
2021/06/03 02:42:59;;;;;;;10.80;4.55;;;15.80;99.90;;;;;;3522372;40;20310;-84
2021/06/03 02:45:30;;;;;;;7.20;5.05;;;15.80;99.90;;;;;;3534122;40;20098;-85
2021/06/03 02:48:01;;;;;;;11.13;4.90;;;15.80;99.90;;;;;;3541381;40;20086;-84
2021/06/03 02:50:36;;;;;;;9.38;4.70;;;15.70;99.90;;;;;;3532159;40;20058;-83
2021/06/03 02:53:04;;;;;;;7.43;4.72;;;15.70;99.90;;;;;;3540057;40;20090;-83
2021/06/03 02:55:35;;;;;;;7.15;4.78;;;15.70;99.90;;;;;;3533769;40;20322;-84
2021/06/03 02:58:09;;;;;;;9.27;5.22;;;15.70;99.90;;;;;;3541609;40;20344;-83
2021/06/03 03:00:41;;;;;;;9.80;5.55;;;15.70;99.90;;;;;;3542475;40;20094;-84
2021/06/03 03:03:10;;;;;;;6.97;4.68;;;15.60;99.90;;;;;;3534167;40;20086;-86
2021/06/03 03:05:41;;;;;;;6.28;4.32;;;15.60;99.90;;;;;;3542115;40;20035;-85
2021/06/03 03:08:12;;;;;;;6.45;4.40;;;15.50;99.90;;;;;;3534343;40;20085;-84
2021/06/03 03:10:42;;;;;;;8.77;4.57;;;15.40;99.90;;;;;;3533895;40;20073;-84
2021/06/03 03:13:13;;;;;;;10.20;5.60;;;15.40;99.90;;;;;;3542192;40;20094;-84
2021/06/03 03:15:43;;;;;;;11.73;5.32;;;15.40;99.90;;;;;;3519827;40;20071;-84
2021/06/03 03:18:11;;;;;;;8.37;5.60;;;15.30;99.90;;;;;;3534825;40;20070;-84
2021/06/03 03:20:39;;;;;;;8.23;5.43;;;15.40;99.90;;;;;;3540415;40;20452;-84
2021/06/03 03:23:08;;;;;;;7.80;5.70;;;15.40;99.90;;;;;;3534899;40;20402;-86
2021/06/03 03:25:38;;;;;;;13.02;8.07;;;15.50;99.90;;;;;;3534409;40;20094;-84
2021/06/03 03:28:05;;;;;;;;;;;15.50;99.90;;;;;;3534635;40;20059;-84
2021/06/03 03:30:40;;;;;;;9.23;5.10;;;15.50;99.90;;;;;;3530646;40;19974;-85
2021/06/03 03:33:10;;;;;;;6.45;4.80;;;15.50;99.90;;;;;;3533231;40;20086;-85
2021/06/03 03:35:38;;;;;;;8.77;5.20;;;15.50;99.90;;;;;;3534971;40;20058;-84
2021/06/03 03:38:06;;;;;;;;;;;15.60;99.90;;;;;;3544077;40;20099;-83
2021/06/03 03:40:34;;;;;;;8.40;6.13;;;15.50;99.90;;;;;;3542437;40;19974;-83
2021/06/03 03:43:02;;;;;;;10.30;5.78;;;15.50;99.90;;;;;;3534254;40;20078;-85
2021/06/03 03:45:30;;;;;;;12.20;5.72;;;15.60;99.90;;;;;;3542242;40;20082;-84
2021/06/03 03:48:01;;;;;;;8.25;5.28;;;15.60;99.90;;;;;;3526316;40;20122;-86
2021/06/03 03:50:29;;;;;;;7.18;5.00;;;15.60;99.90;;;;;;3536637;40;20309;-83
2021/06/03 03:52:56;;;;;;;11.98;5.53;;;15.60;99.90;;;;;;3545338;40;20075;-87
2021/06/03 03:55:25;;;;;;;7.38;5.10;;;15.60;99.90;;;;;;3544998;40;20073;-84
2021/06/03 03:57:55;;;;;;;6.70;4.70;;;15.70;99.90;;;;;;3545240;40;20081;-83
2021/06/03 04:00:25;;;;;;;11.73;6.10;;;15.70;99.90;;;;;;3536389;40;20065;-82
2021/06/03 04:03:03;;;;;;;9.10;5.30;;;15.70;99.90;;;;;;3544650;40;20098;-88
2021/06/03 04:05:31;;;;;;;13.30;5.00;;;15.70;99.90;;;;;;3537481;40;20085;-86
2021/06/03 04:08:07;;;;;;;12.35;4.82;;;15.80;99.90;;;;;;3545493;40;20074;-84
2021/06/03 04:10:36;;;;;;;8.45;5.00;;;15.80;99.90;;;;;;3544451;40;20101;-85
2021/06/03 04:13:04;;;;;;;11.90;5.27;;;15.80;99.90;;;;;;3544495;40;20073;-85
2021/06/03 04:15:36;;;;;;;11.65;5.50;;;15.90;99.90;;;;;;3544094;40;20332;-85
2021/06/03 04:18:07;;;;;;;;;;;15.90;99.90;;;;;;3551992;40;20074;-84
2021/06/03 04:20:34;;;;;;;7.95;5.78;;;15.90;99.90;;;;;;3551573;40;19973;-83
2021/06/03 04:23:04;;;;;;;12.95;5.45;;;15.90;99.90;;;;;;3551678;40;20093;-86
2021/06/03 04:25:35;;;;;;;9.65;5.22;;;15.90;99.90;;;;;;3544025;40;20069;-83
2021/06/03 04:28:05;;;;;;;11.45;5.50;;;15.90;99.90;;;;;;3535954;40;20097;-83
2021/06/03 04:30:39;;;;;;;8.82;5.55;;;16.00;99.90;;;;;;3543862;40;20077;-84
2021/06/03 04:33:09;;;;;;;9.45;5.38;;;16.00;99.90;;;;;;3535589;40;20074;-84
2021/06/03 04:35:38;;;;;;;12.18;5.65;;;16.00;99.90;;;;;;3536277;40;20134;-87
2021/06/03 04:38:05;;;;;;;9.10;4.70;;;16.10;99.90;;;;;;3547493;40;20054;-85
2021/06/03 04:40:35;;;;;;;12.57;5.32;;;16.20;99.90;;;;;;3550596;40;20357;-82
2021/06/03 04:43:03;;;;;;;12.05;5.05;;;16.10;99.90;;;;;;3556613;40;20081;-84
2021/06/03 04:45:36;;;;;;;9.60;5.32;;;16.30;99.90;;;;;;3552182;40;20378;-84
2021/06/03 04:48:07;;;;;;;8.95;5.30;;;16.30;99.90;;;;;;3547727;40;20094;-83
2021/06/03 04:50:37;;;;;;;7.40;4.63;;;16.30;99.90;;;;;;3530954;40;20065;-82
2021/06/03 04:53:04;;;;;;;9.40;5.32;;;16.40;99.90;;;;;;3547545;40;20085;-83
2021/06/03 04:55:36;;;;;;;8.82;5.68;;;16.30;99.90;;;;;;3527838;40;20098;-82
2021/06/03 04:58:05;;;;;;;7.43;5.00;;;16.40;99.90;;;;;;3533522;40;20077;-83
2021/06/03 05:00:37;;;;;;;8.35;5.57;;;16.50;99.90;;;;;;3541530;40;20086;-84
2021/06/03 05:03:06;;;;;;;9.88;5.72;;;16.60;99.90;;;;;;3551244;40;20066;-83
2021/06/03 05:05:33;;;;;;;7.60;4.93;;;16.70;99.90;;;;;;3534523;40;20101;-84
2021/06/03 05:08:02;;;;;;;8.43;5.03;;;16.80;99.90;;;;;;3533513;40;20070;-85
2021/06/03 05:10:31;;;;;;;9.98;4.90;;;16.90;99.90;;;;;;3534189;40;20069;-83
2021/06/03 05:13:01;;;;;;;11.30;5.82;;;17.00;99.90;;;;;;3534654;40;20094;-82
2021/06/03 05:15:29;;;;;;;14.23;5.45;;;17.10;99.90;;;;;;3535412;40;20098;-84
2021/06/03 05:17:57;;;;;;;14.00;5.35;;;17.20;99.90;;;;;;3538141;40;20147;-83
2021/06/03 05:20:28;;;;;;;9.93;5.15;;;17.20;99.90;;;;;;3538594;40;20066;-84
2021/06/03 05:22:58;;;;;;;7.97;4.10;;;17.30;99.90;;;;;;3542141;40;20070;-84
2021/06/03 05:25:29;;;;;;;10.38;5.15;;;17.50;99.90;;;;;;3539394;40;20086;-84
2021/06/03 05:28:00;;;;;;;8.00;4.63;;;17.50;99.90;;;;;;3534663;40;20030;-83
2021/06/03 05:30:28;;;;;;;12.95;4.35;;;17.70;99.90;;;;;;3532920;40;20094;-85
2021/06/03 05:32:55;;;;;;;7.87;4.77;;;17.80;99.90;;;;;;3533790;40;20066;-83
2021/06/03 05:35:25;;;;;;;11.00;5.45;;;17.90;99.90;;;;;;3529639;40;20102;-85
2021/06/03 05:37:54;;;;;;;9.80;4.67;;;18.00;99.90;;;;;;3540536;40;20054;-85
2021/06/03 05:40:24;;;;;;;6.97;4.18;;;18.00;99.90;;;;;;3548941;40;20074;-82
2021/06/03 05:42:54;;;;;;;5.53;4.15;;;18.20;99.90;;;;;;3541380;40;20317;-83
2021/06/03 05:45:22;;;;;;;15.18;5.15;;;18.30;99.90;;;;;;3527284;40;20074;-84
2021/06/03 05:47:50;;;;;;;9.40;4.60;;;18.40;99.90;;;;;;3541356;40;20094;-83
2021/06/03 05:50:19;;;;;;;10.43;4.22;;;18.50;99.90;;;;;;3585556;23;20041;-80
2021/06/03 06:02:19;;;;;;;6.55;4.10;;;19.00;99.90;;;;;;2153249;23;21293;-96
2021/06/03 06:08:08;;;;;;;10.20;4.05;;;19.20;99.70;;;;;;3545212;40;20062;-85
2021/06/03 06:10:36;;;;;;;6.90;3.67;;;19.30;99.40;;;;;;3547979;40;20094;-86
2021/06/03 06:13:03;;;;;;;12.60;4.80;;;19.40;98.60;;;;;;3533058;40;20089;-89
2021/06/03 06:15:32;;;;;;;10.70;4.28;;;19.40;98.50;;;;;;3537940;40;20337;-85
2021/06/03 06:18:05;;;;;;;13.20;4.78;;;19.50;98.60;;;;;;3542319;40;20074;-84
2021/06/03 06:20:34;;;;;;;7.50;3.55;;;19.60;98.30;;;;;;3539247;40;20090;-85
2021/06/03 06:23:01;;;;;;;7.93;3.78;;;19.80;98.40;;;;;;3544172;40;20075;-86
2021/06/03 06:25:32;;;;;;;9.13;3.92;;;19.90;97.90;;;;;;3543300;40;20066;-82
2021/06/03 06:28:02;;;;;;;8.57;4.10;;;20.00;96.60;;;;;;3706230;23;20059;-89
2021/06/03 06:30:29;;;;;;;10.65;4.18;;;20.10;96.30;;;;;;3231913;23;20050;-78
2021/06/03 06:33:01;;;;;;;8.35;3.47;;;20.10;96.50;;;;;;3650765;23;20043;-81
2021/06/03 06:38:19;;;;;;;;;;;20.30;96.20;;;;;;3706914;23;20086;-82
2021/06/03 06:44:08;;;;;;;8.00;4.28;;;20.50;96.50;;;;;;3680171;23;20050;-89
2021/06/03 06:46:40;;;;;;;10.73;4.43;;;20.60;96.30;;;;;;1823988;23;20271;-92
2021/06/03 06:49:13;;;;;;;6.75;3.75;;;20.70;95.90;;;;;;3694663;23;20053;-88
2021/06/03 06:52:07;;;;;;;6.53;3.30;;;20.80;95.50;;;;;;3897352;23;20071;31
2021/06/03 06:54:45;;;;;;;13.32;4.45;;;20.80;95.90;;;;;;1194991;23;20277;-80
2021/06/03 06:57:13;;;;;;;;;;;20.80;97.80;;;;;;2177725;23;20047;-83
2021/06/03 06:59:41;;;;;;;7.88;3.13;;;20.90;96.90;;;;;;3528822;40;19982;-85
2021/06/03 07:02:09;;;;;;;7.88;3.65;;;21.00;95.20;;;;;;3522658;40;20094;-85
2021/06/03 07:04:37;;;;;;;8.43;3.58;;;21.00;94.60;;;;;;3528722;40;20301;-84
2021/06/03 07:07:05;;;;;;;5.72;3.28;;;21.10;94.40;;;;;;3516451;40;20094;-85
2021/06/03 07:09:32;;;;;;;7.10;3.10;;;21.10;93.90;;;;;;3525760;40;20310;-84
2021/06/03 07:12:01;;;;;;;7.88;3.45;;;21.20;93.20;;;;;;3536251;40;20450;-85
2021/06/03 07:14:28;;;;;;;7.50;3.40;;;21.30;93.10;;;;;;3527544;40;20139;-84
2021/06/03 07:16:55;;;;;;;6.82;3.10;;;21.30;92.80;;;;;;3521050;40;20099;-85
2021/06/03 07:19:22;;;;;;;5.53;3.58;;;21.40;92.00;;;;;;3532947;40;20062;-83
2021/06/03 07:21:50;;;;;;;11.63;3.53;;;21.60;92.00;;;;;;3524699;40;20083;-83
2021/06/03 07:24:17;;;;;;;9.13;3.90;;;21.60;91.40;;;;;;3525566;40;20074;-85
2021/06/03 07:26:45;;;;;;;5.22;3.00;;;21.70;91.10;;;;;;3521914;40;20087;-86
2021/06/03 07:29:13;;;;;;;11.45;3.50;;;21.80;90.40;;;;;;3523313;40;20458;-87
2021/06/03 07:31:40;;;;;;;;;;;21.90;90.10;;;;;;3523468;40;20294;-85
2021/06/03 07:34:08;;;;;;;6.25;2.90;;;22.00;89.80;;;;;;3533057;40;19971;-85
2021/06/03 07:36:43;;;;;;;8.63;3.22;;;22.10;88.80;;;;;;3532298;40;20035;-85
2021/06/03 07:39:12;;;;;;;5.00;3.20;;;22.30;86.60;;;;;;3536842;40;20040;-84
2021/06/03 07:41:50;;;;;;;6.10;3.03;;;22.40;82.60;;;;;;3518550;40;20082;-80
2021/06/03 07:44:20;;;;;;;7.03;3.20;;;22.30;80.30;;;;;;3519177;40;20088;-83
2021/06/03 07:46:48;;;;;;;8.02;2.70;;;22.40;78.20;;;;;;3533184;40;20071;-85
2021/06/03 07:49:16;;;;;;;6.25;2.83;;;22.40;77.10;;;;;;3529347;40;20311;-81
2021/06/03 07:51:45;;;;;;;9.30;3.88;;;22.60;77.30;;;;;;3530442;40;20087;-83
2021/06/03 07:54:12;;;;;;;;;;;22.80;77.40;;;;;;3526454;40;20076;-82
2021/06/03 07:56:43;;;;;;;8.45;2.55;;;23.00;76.10;;;;;;3524056;40;20291;-82
2021/06/03 07:59:10;;;;;;;5.55;2.50;;;23.20;74.20;;;;;;3533621;40;20079;-84
2021/06/03 08:01:39;;;;;;;5.50;2.25;;;23.40;70.90;;;;;;3524598;40;20075;-84
2021/06/03 08:04:09;;;;;;;4.75;2.53;;;23.50;67.70;;;;;;3534231;40;20099;-84
2021/06/03 08:07:03;;;;;;;3.83;2.53;;;23.70;66.40;;;;;;3523633;40;20080;-83
2021/06/03 08:12:19;;;;;;;4.32;2.33;;;23.80;63.90;;;;;;3550766;40;20051;-84
2021/06/03 08:14:47;;;;;;;8.68;2.60;;;23.90;64.00;;;;;;3528508;40;20095;-86
2021/06/03 08:17:20;;;;;;;6.00;2.70;;;24.00;63.90;;;;;;3516640;40;20086;-83
2021/06/03 08:19:49;;;;;;;5.47;2.50;;;24.10;64.60;;;;;;3517527;40;20075;-84
2021/06/03 08:22:17;;;;;;;7.03;2.88;;;24.10;64.50;;;;;;3522615;40;20075;-84
2021/06/03 08:24:44;;;;;;;6.55;2.45;;;24.30;63.00;;;;;;3514672;40;20083;-82
2021/06/03 08:27:11;;;;;;;7.30;3.00;;;24.40;62.80;;;;;;3521010;40;20072;-83
2021/06/03 08:29:39;;;;;;;5.47;2.83;;;24.40;62.30;;;;;;3522135;40;20718;-84
2021/06/03 08:32:07;;;;;;;6.68;3.03;;;24.70;62.60;;;;;;3517400;40;20060;-85
2021/06/03 08:34:37;;;;;;;6.90;2.60;;;24.80;62.40;;;;;;3512456;40;20420;-83
2021/06/03 08:37:10;;;;;;;7.90;2.70;;;25.00;62.20;;;;;;3515679;40;20079;-82
2021/06/03 08:39:38;;;;;;;5.40;2.65;;;25.10;61.00;;;;;;3501460;40;20287;-83
2021/06/03 08:42:09;;;;;;;7.40;2.20;;;25.20;60.00;;;;;;3520315;40;20107;-84
2021/06/03 08:44:38;;;;;;;6.30;2.33;;;25.40;59.10;;;;;;3517582;40;20071;-84
2021/06/03 08:47:10;;;;;;;5.65;2.40;;;25.40;58.50;;;;;;3497059;40;20042;-86
2021/06/03 08:49:39;;;;;;;10.88;2.58;;;25.40;59.00;;;;;;3518449;40;20116;-84
2021/06/03 08:52:28;;;;;;;9.20;2.47;;;25.50;59.30;;;;;;3505560;40;20074;-86
2021/06/03 08:54:58;;;;;;;6.43;2.70;;;25.60;59.00;;;;;;3528412;40;20091;-85
2021/06/03 08:57:26;;;;;;;6.70;2.55;;;25.80;58.60;;;;;;3521961;40;20438;-85
2021/06/03 08:59:55;;;;;;;8.43;3.08;;;25.90;57.10;;;;;;3650853;23;20047;-85
2021/06/03 09:02:22;;;;;;;55.30;16.23;;;26.00;56.80;;;;;;3499103;40;20075;-83
2021/06/03 09:04:51;;;;;;;39.88;13.32;;;26.20;63.40;;;;;;3499196;40;20064;-84
2021/06/03 09:07:29;;;;;;;16.52;6.43;;;26.10;62.50;;;;;;3510882;40;20084;-86
2021/06/03 09:09:56;;;;;;;23.20;7.47;;;26.10;59.60;;;;;;3533038;40;20424;-89
2021/06/03 09:12:33;;;;;;;11.85;5.38;;;26.10;60.40;;;;;;3535060;40;20070;-88
2021/06/03 09:15:16;;;;;;;18.27;6.13;;;26.10;59.30;;;;;;3530356;40;20048;-88
2021/06/03 09:17:49;;;;;;;18.38;5.53;;;26.00;60.30;;;;;;3523821;40;20040;-86
2021/06/03 09:20:25;;;;;;;5.53;2.65;;;26.00;60.10;;;;;;3530303;40;20090;-84
2021/06/03 09:22:53;;;;;;;12.35;4.68;;;26.00;56.20;;;;;;3527323;40;20051;-84
2021/06/03 09:25:30;;;;;;;18.95;5.43;;;26.00;57.30;;;;;;3526243;40;20032;-85
2021/06/03 09:28:28;;;;;;;16.33;6.32;;;26.00;58.80;;;;;;3529328;40;20044;-86
2021/06/03 09:31:02;;;;;;;21.20;7.55;;;26.10;59.80;;;;;;3503631;40;20107;-83
2021/06/03 09:33:54;;;;;;;13.75;5.65;;;26.20;61.10;;;;;;3512026;40;20060;-85
2021/06/03 09:36:48;;;;;;;12.98;5.07;;;26.30;60.50;;;;;;3509072;40;20088;-83
2021/06/03 09:39:21;;;;;;;13.88;5.30;;;26.40;59.70;;;;;;3502210;40;20092;-82
2021/06/03 09:41:52;;;;;;;11.88;4.05;;;26.50;60.00;;;;;;3503017;40;20083;-84
2021/06/03 09:44:24;;;;;;;12.60;5.00;;;26.50;58.10;;;;;;3524935;40;20084;-84
2021/06/03 09:46:56;;;;;;;11.68;4.53;;;26.60;59.20;;;;;;3513880;41;20092;-83
2021/06/03 09:49:26;;;;;;;9.50;3.53;;;26.70;58.90;;;;;;3512942;40;20333;-83
2021/06/03 09:51:59;;;;;;;5.68;3.53;;;26.70;56.70;;;;;;3509592;40;20084;-83
2021/06/03 09:54:28;;;;;;;9.35;3.78;;;26.70;56.30;;;;;;3515255;40;20160;-83
2021/06/03 09:56:59;;;;;;;7.28;2.33;;;26.70;58.00;;;;;;3496254;40;20055;-83
2021/06/03 09:59:34;;;;;;;5.00;2.53;;;26.70;54.00;;;;;;3497876;41;20384;-81
2021/06/03 10:02:03;;;;;;;9.95;2.78;;;26.60;53.60;;;;;;3517451;40;20079;-83
2021/06/03 10:04:37;;;;;;;10.00;3.00;;;26.70;52.90;;;;;;3528987;40;20092;-81
2021/06/03 10:07:18;;;;;;;9.68;3.53;;;26.80;56.50;;;;;;3519243;40;20391;-81
2021/06/03 10:09:52;;;;;;;4.20;2.70;;;27.00;58.10;;;;;;3513457;40;20091;-82
2021/06/03 10:12:35;;;;;;;5.57;2.53;;;27.20;54.80;;;;;;3510798;40;20080;-82
2021/06/03 10:15:08;;;;;;;7.95;3.05;;;27.70;53.50;;;;;;3532681;40;20075;-84
2021/06/03 10:17:37;;;;;;;6.85;3.25;;;28.50;53.80;;;;;;3506834;40;20092;-85
2021/06/03 10:20:08;;;;;;;4.50;2.53;;;29.40;53.50;;;;;;3529142;40;20068;-86
2021/06/03 10:22:39;;;;;;;8.02;2.60;;;30.50;49.80;;;;;;3524648;40;20067;-86
2021/06/03 10:25:12;;;;;;;7.95;2.80;;;31.60;46.80;;;;;;3531052;40;20191;-85
2021/06/03 10:27:44;;;;;;;7.15;2.70;;;32.20;48.00;;;;;;3516987;40;20068;-84
2021/06/03 10:30:15;;;;;;;7.30;2.20;;;32.60;46.40;;;;;;3516020;40;20095;-82
2021/06/03 10:32:45;;;;;;;7.93;1.80;;;32.80;42.30;;;;;;3515774;40;20298;-84
2021/06/03 10:35:15;;;;;;;9.15;2.92;;;32.80;40.40;;;;;;3514615;40;20068;-84
2021/06/03 10:37:48;;;;;;;4.85;1.88;;;32.80;39.70;;;;;;3505232;40;20095;-83
2021/06/03 10:40:18;;;;;;;5.65;2.20;;;32.80;39.50;;;;;;3519658;40;20056;-81
2021/06/03 10:42:45;;;;;;;5.18;2.45;;;32.80;39.20;;;;;;3525516;40;20095;-85
2021/06/03 10:45:16;;;;;;;9.10;2.10;;;32.80;40.00;;;;;;3518829;40;20071;-82
2021/06/03 10:47:44;;;;;;;5.15;1.80;;;32.50;39.00;;;;;;3523022;40;20087;-82
2021/06/03 10:50:14;;;;;;;4.38;1.95;;;32.20;39.10;;;;;;3513789;40;20412;-83
2021/06/03 10:52:42;;;;;;;6.40;2.22;;;31.90;39.60;;;;;;3521320;40;20072;-83
2021/06/03 10:55:25;;;;;;;4.80;1.95;;;32.20;40.30;;;;;;3514875;40;20075;-82
2021/06/03 10:57:56;;;;;;;8.35;2.65;;;32.80;39.90;;;;;;3514126;40;20055;-84
2021/06/03 11:00:31;;;;;;;4.63;2.10;;;33.30;39.50;;;;;;3520017;40;20075;-83
2021/06/03 11:03:01;;;;;;;4.65;2.58;;;33.50;39.00;;;;;;3528175;40;20160;-86
2021/06/03 11:05:31;;;;;;;7.43;2.13;;;34.10;37.80;;;;;;3538632;40;20068;-82
2021/06/03 11:08:24;;;;;;;4.70;2.30;;;34.20;37.40;;;;;;3522619;40;20103;-83
2021/06/03 11:10:54;;;;;;;6.32;2.13;;;34.20;37.40;;;;;;3516364;40;20077;-83
2021/06/03 11:13:22;;;;;;;5.90;2.70;;;34.00;37.60;;;;;;3526038;40;20075;-82
2021/06/03 11:16:09;;;;;;;5.20;2.08;;;34.10;37.80;;;;;;3529395;40;20079;-83
2021/06/03 11:19:05;;;;;;;7.65;2.15;;;34.10;38.00;;;;;;3523866;40;20067;-82
2021/06/03 11:22:08;;;;;;;3.40;1.70;;;34.30;36.70;;;;;;3521499;40;20129;-83
2021/06/03 11:24:44;;;;;;;8.45;2.30;;;34.10;37.90;;;;;;3493521;41;20107;-83
2021/06/03 11:27:15;;;;;;;4.57;2.10;;;34.00;38.50;;;;;;3502925;41;20305;-82
2021/06/03 11:29:58;;;;;;;4.53;2.30;;;34.00;38.60;;;;;;3510274;41;20299;-79
2021/06/03 11:32:28;;;;;;;5.82;2.40;;;34.10;38.30;;;;;;3493595;41;20076;-81
2021/06/03 11:34:58;;;;;;;6.32;2.25;;;34.10;38.20;;;;;;3502653;41;20486;-82
2021/06/03 11:37:28;;;;;;;7.40;2.90;;;34.20;38.00;;;;;;3486894;41;20084;-83
2021/06/03 11:39:57;;;;;;;5.53;2.38;;;34.10;38.20;;;;;;3496962;41;20348;-85
2021/06/03 11:42:34;;;;;;;4.07;2.08;;;34.00;38.00;;;;;;3499639;41;20087;-85
2021/06/03 11:45:10;;;;;;;5.50;2.88;;;34.30;38.30;;;;;;3498768;41;20127;-83
2021/06/03 11:47:59;;;;;;;4.43;1.90;;;34.70;38.10;;;;;;3494139;41;20103;-82
2021/06/03 11:51:11;;;;;;;6.80;1.70;;;35.40;37.80;;;;;;3489257;41;20083;-83
2021/06/03 11:53:51;;;;;;;6.97;2.28;;;35.70;36.40;;;;;;3479396;41;20081;-82
2021/06/03 11:56:27;;;;;;;3.80;2.00;;;36.30;36.50;;;;;;3475022;41;20192;-82
2021/06/03 11:58:58;;;;;;;6.85;2.42;;;36.50;36.60;;;;;;3514192;40;20303;-80
2021/06/03 12:01:37;;;;;;;4.03;1.95;;;36.90;36.20;;;;;;3511289;40;20084;-83
2021/06/03 12:04:14;;;;;;;6.22;2.58;;;37.20;35.20;;;;;;3512323;40;20300;-83
2021/06/03 12:06:44;;;;;;;3.60;2.13;;;37.80;34.90;;;;;;3515311;40;20102;-84
2021/06/03 12:09:23;;;;;;;5.43;2.40;;;38.10;34.60;;;;;;3515998;40;20080;-83
2021/06/03 12:11:53;;;;;;;8.93;2.50;;;38.80;34.00;;;;;;3520324;40;20094;-84
2021/06/03 12:14:24;;;;;;;6.10;2.78;;;39.20;33.20;;;;;;3525058;40;20414;-84
2021/06/03 12:16:54;;;;;;;6.55;2.33;;;39.50;32.90;;;;;;3511102;40;20064;-83
2021/06/03 12:19:27;;;;;;;3.70;2.10;;;39.40;32.60;;;;;;3527417;40;20091;-85
2021/06/03 12:22:00;;;;;;;7.15;2.17;;;38.90;32.90;;;;;;3511418;40;20084;-84
2021/06/03 12:24:39;;;;;;;9.68;2.60;;;38.30;33.50;;;;;;3524489;40;20076;-86
2021/06/03 12:27:17;;;;;;;3.80;2.10;;;38.00;33.80;;;;;;3500892;41;20329;-83
2021/06/03 12:29:47;;;;;;;4.60;2.28;;;37.80;34.10;;;;;;3514705;40;20052;-84
2021/06/03 12:32:18;;;;;;;8.18;2.60;;;37.60;34.30;;;;;;3517948;40;20060;-84
2021/06/03 12:34:46;;;;;;;7.97;2.30;;;37.80;34.20;;;;;;3506252;40;20087;-84
2021/06/03 12:37:27;;;;;;;5.60;2.03;;;37.90;33.50;;;;;;3508307;41;20080;-85
2021/06/03 12:40:01;;;;;;;6.65;1.95;;;38.40;32.70;;;;;;3506979;40;20426;-82
2021/06/03 12:42:33;;;;;;;3.92;1.67;;;39.10;32.50;;;;;;3484799;40;20268;-82
2021/06/03 12:45:06;;;;;;;4.60;2.25;;;39.60;31.60;;;;;;3511600;40;20036;-85
2021/06/03 12:47:38;;;;;;;8.30;2.35;;;39.00;31.80;;;;;;3513179;40;20052;-85
2021/06/03 12:50:12;;;;;;;4.28;2.00;;;38.40;32.40;;;;;;3512522;40;20036;-83
2021/06/03 12:52:44;;;;;;;6.18;3.03;;;37.80;32.90;;;;;;3518376;40;20293;-83
2021/06/03 12:55:16;;;;;;;6.88;2.47;;;37.90;33.10;;;;;;3511772;40;20088;-82
2021/06/03 12:57:46;;;;;;;5.13;2.25;;;38.20;33.60;;;;;;3496684;40;20068;-83
2021/06/03 13:00:19;;;;;;;4.97;2.75;;;38.40;33.80;;;;;;3528499;40;20089;-85
2021/06/03 13:02:48;;;;;;;7.07;2.78;;;38.50;33.40;;;;;;3530494;40;20411;-82
2021/06/03 13:05:23;;;;;;;5.10;2.22;;;38.00;33.80;;;;;;3531934;40;20608;-83
2021/06/03 13:07:53;;;;;;;4.57;2.20;;;37.90;33.60;;;;;;3546095;40;20079;-83
2021/06/03 13:10:22;;;;;;;;;;;37.70;33.70;;;;;;3540463;40;20399;-84
2021/06/03 13:12:52;;;;;;;4.35;2.38;;;37.70;34.30;;;;;;3538264;40;19970;-82
2021/06/03 13:15:22;;;;;;;8.40;2.90;;;37.60;33.80;;;;;;3527370;40;20071;-83
2021/06/03 13:17:58;;;;;;;7.40;2.75;;;37.30;34.60;;;;;;3531291;40;20087;-83
2021/06/03 13:20:28;;;;;;;6.00;2.40;;;37.40;35.40;;;;;;3519529;40;20095;-83
2021/06/03 13:23:00;;;;;;;9.40;3.78;;;37.70;35.30;;;;;;3520730;40;20070;-85
2021/06/03 13:25:30;;;;;;;8.07;2.60;;;38.00;35.00;;;;;;3531203;40;20087;-82
2021/06/03 13:27:58;;;;;;;3.90;2.33;;;38.10;34.70;;;;;;3529570;40;20067;-82
2021/06/03 13:30:31;;;;;;;7.30;2.20;;;38.10;34.50;;;;;;3538583;40;20079;-84